Time,TemperatureF,DewpointF,PressureIn,WindDirection,WindDirectionDegrees,WindSpeedMPH,WindSpeedGustMPH,Humidity,HourlyPrecipIn,Conditions,Clouds,dailyrainin,SoftwareType,DateUTC
2013-10-31 00:14:00,60.0,54.0,30.14,NNE,16,0.0,0.0,81,0.00,,,0.00,,2013-10-31 04:14:00,
2013-10-31 00:24:00,60.0,54.0,30.14,NNE,16,0.0,0.0,81,0.00,,,0.00,,2013-10-31 04:24:00,
2013-10-31 00:43:00,60.0,54.0,30.14,NNE,16,0.0,0.0,82,0.00,,,0.00,,2013-10-31 04:43:00,
2013-10-31 00:54:00,60.0,54.0,30.14,NNE,16,0.0,0.0,82,0.00,,,0.00,,2013-10-31 04:54:00,
2013-10-31 01:04:00,60.0,54.0,30.14,NNE,16,0.0,0.0,82,0.00,,,0.00,,2013-10-31 05:04:00,
2013-10-31 01:23:00,59.0,54.0,30.14,NNE,16,0.0,0.0,82,0.00,,,0.00,,2013-10-31 05:23:00,
2013-10-31 01:52:00,59.0,54.0,30.13,NNE,16,0.0,0.0,83,0.00,,,0.00,,2013-10-31 05:52:00,
2013-10-31 02:12:00,59.0,54.0,30.13,NNE,16,0.0,0.0,83,0.00,,,0.00,,2013-10-31 06:12:00,
2013-10-31 02:22:00,59.0,54.0,30.13,NNE,16,0.0,0.0,83,0.00,,,0.00,,2013-10-31 06:22:00,
2013-10-31 02:33:00,59.0,54.0,30.13,NNE,16,0.0,0.0,83,0.00,,,0.00,,2013-10-31 06:33:00,
2013-10-31 03:12:00,58.0,53.0,30.12,NNE,16,0.0,0.0,84,0.00,,,0.00,,2013-10-31 07:12:00,
2013-10-31 03:22:00,58.0,53.0,30.12,NNE,16,0.0,0.0,84,0.00,,,0.00,,2013-10-31 07:22:00,
2013-10-31 03:42:00,59.0,54.0,30.11,NNE,16,0.0,0.0,83,0.00,,,0.00,,2013-10-31 07:42:00,
2013-10-31 03:52:00,59.0,54.0,30.11,NNE,16,0.0,0.0,83,0.00,,,0.00,,2013-10-31 07:52:00,
2013-10-31 04:12:00,59.0,54.0,30.10,NNE,16,0.0,0.0,82,0.00,,,0.00,,2013-10-31 08:12:00,
2013-10-31 04:22:00,59.0,53.0,30.10,NNE,16,0.0,0.0,81,0.00,,,0.00,,2013-10-31 08:22:00,
2013-10-31 04:32:00,59.0,53.0,30.10,NNE,16,0.0,0.0,81,0.00,,,0.00,,2013-10-31 08:32:00,
2013-10-31 04:42:00,59.0,53.0,30.10,NNE,16,0.0,0.0,81,0.00,,,0.00,,2013-10-31 08:42:00,
2013-10-31 04:52:00,59.0,53.0,30.09,SE,135,0.0,0.0,80,0.00,,,0.00,,2013-10-31 08:52:00,
2013-10-31 05:02:00,59.0,53.0,30.09,SE,135,0.0,0.0,80,0.00,,,0.00,,2013-10-31 09:02:00,
2013-10-31 05:11:00,59.0,53.0,30.09,SE,135,0.0,0.0,80,0.00,,,0.00,,2013-10-31 09:11:00,
2013-10-31 05:22:00,59.0,52.0,30.08,East,92,0.0,0.0,79,0.00,,,0.00,,2013-10-31 09:22:00,
2013-10-31 05:43:00,60.0,53.0,30.07,SSW,208,0.0,0.0,78,0.00,,,0.00,,2013-10-31 09:43:00,
2013-10-31 05:53:00,60.0,53.0,30.07,SSW,208,0.0,0.0,78,0.00,,,0.00,,2013-10-31 09:53:00,
2013-10-31 06:13:00,60.0,53.0,30.07,SSE,150,0.0,0.0,78,0.00,,,0.00,,2013-10-31 10:13:00,
2013-10-31 06:23:00,59.0,52.0,30.08,SSW,202,0.0,0.0,79,0.00,,,0.00,,2013-10-31 10:23:00,
2013-10-31 06:33:00,59.0,52.0,30.08,SSW,202,0.0,0.0,79,0.00,,,0.00,,2013-10-31 10:33:00,
2013-10-31 06:42:00,59.0,52.0,30.08,SSW,202,0.0,0.0,79,0.00,,,0.00,,2013-10-31 10:42:00,
2013-10-31 06:53:00,59.0,52.0,30.07,South,179,0.0,0.0,78,0.00,,,0.00,,2013-10-31 10:53:00,
2013-10-31 07:12:00,59.0,52.0,30.08,SW,234,0.0,2.0,79,0.00,,,0.00,,2013-10-31 11:12:00,
2013-10-31 07:22:00,59.0,53.0,30.09,WSW,253,0.0,0.0,80,0.00,,,0.00,,2013-10-31 11:22:00,
2013-10-31 07:42:00,59.0,53.0,30.09,SSW,198,0.0,0.0,80,0.00,,,0.00,,2013-10-31 11:42:00,
2013-10-31 07:52:00,59.0,53.0,30.09,SSW,198,0.0,0.0,80,0.00,,,0.00,,2013-10-31 11:52:00,
2013-10-31 08:12:00,58.0,52.0,30.09,SSW,198,0.0,0.0,79,0.00,,,0.00,,2013-10-31 12:12:00,
2013-10-31 08:22:00,58.0,52.0,30.09,SSW,198,0.0,0.0,79,0.00,,,0.00,,2013-10-31 12:22:00,
2013-10-31 08:32:00,58.0,52.0,30.09,SSW,198,0.0,0.0,79,0.00,,,0.00,,2013-10-31 12:32:00,
2013-10-31 08:52:00,59.0,51.0,30.07,SSW,204,0.0,0.0,76,0.00,,,0.00,,2013-10-31 12:52:00,
2013-10-31 09:12:00,59.0,51.0,30.06,ESE,105,0.0,0.0,76,0.00,,,0.00,,2013-10-31 13:12:00,
2013-10-31 09:22:00,59.0,51.0,30.06,ESE,105,0.0,0.0,76,0.00,,,0.00,,2013-10-31 13:22:00,
2013-10-31 09:42:00,59.0,52.0,30.06,SSE,159,0.0,0.0,77,0.00,,,0.00,,2013-10-31 13:42:00,
2013-10-31 09:52:00,59.0,52.0,30.06,SSE,159,0.0,0.0,77,0.00,,,0.00,,2013-10-31 13:52:00,
2013-10-31 10:11:00,59.0,51.0,30.06,West,263,1.0,1.0,75,0.00,,,0.00,,2013-10-31 14:11:00,
2013-10-31 10:22:00,60.0,52.0,30.06,South,169,0.0,0.0,74,0.00,,,0.00,,2013-10-31 14:22:00,
2013-10-31 10:42:00,60.0,52.0,30.06,SE,138,0.0,4.0,74,0.00,,,0.00,,2013-10-31 14:42:00,
2013-10-31 10:52:00,60.0,52.0,30.06,SSE,152,3.0,5.0,74,0.00,,,0.00,,2013-10-31 14:52:00,
2013-10-31 11:11:00,59.0,51.0,30.06,West,262,0.0,0.0,75,0.00,,,0.00,,2013-10-31 15:11:00,
2013-10-31 12:23:00,60.0,50.0,30.03,West,271,0.0,0.0,70,0.00,,,0.00,,2013-10-31 16:23:00,
2013-10-31 12:53:00,60.0,51.0,30.03,SW,219,0.0,0.0,71,0.00,,,0.00,,2013-10-31 16:53:00,
2013-10-31 13:12:00,61.0,52.0,30.02,West,266,4.0,11.0,71,0.00,,,0.00,,2013-10-31 17:12:00,
2013-10-31 13:22:00,61.0,52.0,30.02,West,266,4.0,11.0,71,0.00,,,0.00,,2013-10-31 17:22:00,
2013-10-31 13:34:00,61.0,52.0,30.02,West,266,4.0,11.0,71,0.00,,,0.00,,2013-10-31 17:34:00,
2013-10-31 14:22:00,62.0,54.0,29.98,SSW,194,5.0,5.0,76,0.00,,,0.00,,2013-10-31 18:22:00,
2013-10-31 14:52:00,62.0,55.0,29.95,SE,130,0.0,3.0,77,0.00,,,0.00,,2013-10-31 18:52:00,
2013-10-31 15:22:00,62.0,55.0,29.94,NE,55,4.0,5.0,79,0.00,,,0.00,,2013-10-31 19:22:00,
2013-10-31 15:32:00,62.0,55.0,29.94,NE,55,4.0,5.0,79,0.00,,,0.00,,2013-10-31 19:32:00,
2013-10-31 15:52:00,62.0,55.0,29.94,NE,55,4.0,5.0,79,0.00,,,0.00,,2013-10-31 19:52:00,
2013-10-31 16:22:00,62.0,56.0,29.92,SW,221,0.0,0.0,80,0.00,,,0.00,,2013-10-31 20:22:00,
2013-10-31 16:52:00,62.0,56.0,29.91,SSW,195,1.0,2.0,80,0.00,,,0.00,,2013-10-31 20:52:00,
2013-10-31 17:22:00,62.0,56.0,29.90,South,172,0.0,0.0,80,0.00,,,0.00,,2013-10-31 21:22:00,
2013-10-31 17:44:00,62.0,56.0,29.89,SW,236,5.0,10.0,80,0.00,,,0.00,,2013-10-31 21:44:00,
2013-10-31 17:54:00,62.0,56.0,29.89,SW,236,5.0,10.0,80,0.00,,,0.00,,2013-10-31 21:54:00,
2013-10-31 18:14:00,63.0,57.0,29.88,North,360,3.0,3.0,81,0.00,,,0.00,,2013-10-31 22:14:00,
2013-10-31 18:24:00,63.0,57.0,29.88,SSE,167,0.0,4.0,81,0.00,,,0.00,,2013-10-31 22:24:00,
2013-10-31 18:43:00,63.0,57.0,29.87,South,191,9.0,9.0,82,0.00,,,0.00,,2013-10-31 22:43:00,
2013-10-31 18:53:00,63.0,57.0,29.87,South,191,9.0,9.0,82,0.00,,,0.00,,2013-10-31 22:53:00,
2013-10-31 19:22:00,62.0,57.0,29.87,South,181,1.0,1.0,83,0.00,,,0.00,,2013-10-31 23:22:00,
2013-10-31 19:43:00,62.0,58.0,29.88,SW,227,0.0,0.0,86,0.00,,,0.00,,2013-10-31 23:43:00,
2013-10-31 19:53:00,62.0,58.0,29.88,SW,227,0.0,0.0,86,0.00,,,0.00,,2013-10-31 23:53:00,
2013-10-31 20:12:00,61.0,57.0,29.87,WSW,249,0.0,1.0,87,0.00,,,0.00,,2013-11-01 00:12:00,
2013-10-31 20:22:00,61.0,57.0,29.87,WSW,249,0.0,1.0,87,0.00,,,0.00,,2013-11-01 00:22:00,
2013-10-31 20:52:00,60.0,57.0,29.86,WSW,240,0.0,4.0,91,0.01,,,0.01,,2013-11-01 00:52:00,
2013-10-31 21:12:00,60.0,58.0,29.86,WSW,254,0.0,3.0,92,0.02,,,0.02,,2013-11-01 01:12:00,
2013-10-31 21:22:00,60.0,58.0,29.86,WSW,254,0.0,3.0,92,0.02,,,0.02,,2013-11-01 01:22:00,
2013-10-31 21:52:00,60.0,58.0,29.86,SW,216,0.0,3.0,93,0.03,,,0.04,,2013-11-01 01:52:00,
2013-10-31 22:03:00,60.0,58.0,29.86,SW,216,0.0,3.0,93,0.03,,,0.04,,2013-11-01 02:03:00,
2013-10-31 22:22:00,60.0,58.0,29.86,SSW,212,3.0,10.0,93,0.03,,,0.05,,2013-11-01 02:22:00,
2013-10-31 22:42:00,60.0,58.0,29.85,WSW,248,0.0,2.0,93,0.05,,,0.07,,2013-11-01 02:42:00,
2013-10-31 22:52:00,60.0,58.0,29.85,WSW,248,0.0,2.0,93,0.05,,,0.07,,2013-11-01 02:52:00,
2013-10-31 23:12:00,60.0,58.0,29.85,South,185,0.0,3.0,93,0.06,,,0.10,,2013-11-01 03:12:00,
2013-10-31 23:22:00,60.0,58.0,29.85,South,185,0.0,3.0,93,0.06,,,0.10,,2013-11-01 03:22:00,
2013-10-31 23:54:00,60.0,58.0,29.79,WSW,240,14.0,14.0,93,0.04,,,0.11,,2013-11-01 03:54:00,